Time;durP1;ratioP1;P1;durP2;ratioP2;P2;SDS_P1;SDS_P2;PMS_P1;PMS_P2;Temp;Humidity;BMP_temperature;BMP_pressure;BME280_temperature;BME280_humidity;BME280_pressure;Samples;Min_cycle;Max_cycle;Signal;HPM_P1;HPM_P2
2022/06/06 00:01:51;;;;;;;2.30;1.10;;;;;;;16.69;70.15;93075.69;2048696;70;20179;-73
2022/06/06 00:04:19;;;;;;;3.13;1.20;;;;;;;16.70;69.93;93076.41;2048542;70;20152;-73
2022/06/06 00:06:45;;;;;;;2.97;1.35;;;;;;;16.45;70.71;93074.59;2048585;70;20158;-73
2022/06/06 00:09:12;;;;;;;2.13;1.35;;;;;;;16.60;69.35;93070.28;2048344;70;20209;-73
2022/06/06 00:11:38;;;;;;;3.85;1.30;;;;;;;16.48;70.25;93067.63;2048688;70;20228;-73
2022/06/06 00:14:05;;;;;;;4.47;1.05;;;;;;;16.53;69.51;93060.72;2048661;70;20228;-73
2022/06/06 00:16:31;;;;;;;1.35;1.05;;;;;;;16.51;69.89;93069.19;2048623;70;20181;-73
2022/06/06 00:18:57;;;;;;;1.55;1.17;;;;;;;16.45;70.51;93058.28;2048544;70;20588;-72
2022/06/06 00:21:23;;;;;;;5.68;1.25;;;;;;;16.47;70.05;93058.34;2048346;70;20330;-72
2022/06/06 00:23:49;;;;;;;4.78;1.33;;;;;;;16.39;70.63;93051.56;2048736;70;20257;-73
2022/06/06 00:26:15;;;;;;;3.58;1.10;;;;;;;16.31;70.62;93049.13;2045183;70;20139;-72
2022/06/06 00:28:44;;;;;;;4.60;1.23;;;;;;;16.43;68.91;93049.66;2047569;70;20173;-73
2022/06/06 00:36:41;;;;;;;2.67;1.02;;;;;;;16.27;71.01;93026.94;2048648;70;20324;-71
2022/06/06 00:39:08;;;;;;;6.80;1.35;;;;;;;16.37;69.51;93029.50;2045386;70;20155;-72
2022/06/06 00:41:39;;;;;;;7.00;1.60;;;;;;;15.97;71.69;93017.03;2048253;70;20178;-72
2022/06/06 00:44:16;;;;;;;5.28;1.65;;;;;;;16.20;69.78;93022.34;2048619;70;20508;-72
2022/06/06 00:46:46;;;;;;;3.60;1.40;;;;;;;16.11;70.48;93012.00;2048684;70;20540;-72
2022/06/06 00:49:22;;;;;;;6.80;1.30;;;;;;;16.05;70.64;93008.16;2048312;70;20154;-71
2022/06/06 00:51:49;;;;;;;9.30;1.40;;;;;;;16.18;69.40;93013.03;2048358;70;20150;-72
2022/06/06 00:54:15;;;;;;;5.05;1.50;;;;;;;16.02;71.21;93002.38;2048429;70;20138;-72
2022/06/06 00:56:46;;;;;;;2.30;1.10;;;;;;;16.25;68.35;93009.78;2048576;70;20173;-72
2022/06/06 00:59:23;;;;;;;5.15;1.30;;;;;;;16.15;69.81;93003.66;2048592;70;20238;-71
2022/06/06 01:01:50;;;;;;;6.88;1.50;;;;;;;15.99;70.41;92994.44;2047590;70;20634;-71
2022/06/06 01:04:19;;;;;;;4.90;1.40;;;;;;;15.97;69.71;93000.00;2044605;70;20551;-72
2022/06/06 01:06:45;;;;;;;7.22;1.30;;;;;;;15.98;69.59;92996.50;2048555;70;20628;-72
2022/06/06 01:09:16;;;;;;;4.20;1.05;;;;;;;15.78;70.79;92992.75;2048482;70;20172;-72
2022/06/06 01:11:50;;;;;;;3.22;1.33;;;;;;;15.99;69.38;92997.25;2048407;70;20147;-72
2022/06/06 01:14:20;;;;;;;2.88;1.13;;;;;;;16.21;68.37;92992.56;2048662;70;20204;-72
2022/06/06 01:17:04;;;;;;;3.78;1.40;;;;;;;16.06;68.97;92986.91;2048434;70;20619;-72
2022/06/06 01:19:36;;;;;;;3.85;1.67;;;;;;;15.48;72.13;92989.19;2048426;70;20230;-72
2022/06/06 01:22:17;;;;;;;;;;;;;;;15.71;70.78;92994.59;2048783;70;20170;-72
2022/06/06 01:25:15;;;;;;;5.15;1.30;;;;;;;15.74;70.77;92986.88;2048605;70;20116;-71
2022/06/06 01:27:54;;;;;;;2.15;1.20;;;;;;;15.48;71.40;92989.91;2048491;70;20179;-72
2022/06/06 01:30:25;;;;;;;3.15;1.50;;;;;;;15.52;71.58;92992.94;2048486;70;20174;-71
2022/06/06 01:32:58;;;;;;;4.47;1.20;;;;;;;15.63;70.38;92996.28;2048412;70;20147;-71
2022/06/06 01:35:28;;;;;;;7.45;1.33;;;;;;;15.63;70.36;92988.50;2048476;70;20614;-70
2022/06/06 01:37:54;;;;;;;6.57;1.23;;;;;;;15.56;70.81;92983.91;2048292;70;20616;-70
2022/06/06 01:40:21;;;;;;;3.20;1.35;;;;;;;15.66;69.97;92987.22;2048450;70;20189;-70
2022/06/06 01:42:56;;;;;;;2.25;1.38;;;;;;;15.60;70.60;92991.88;2048218;70;20158;-71
2022/06/06 01:45:41;;;;;;;8.07;1.52;;;;;;;15.66;69.48;92986.50;2048165;70;20138;-71
2022/06/06 01:48:12;;;;;;;7.50;1.20;;;;;;;15.66;69.68;92995.00;2048282;70;20146;-71
2022/06/06 01:50:41;;;;;;;5.50;1.00;;;;;;;15.59;70.55;92998.94;2048407;69;20220;-70
2022/06/06 01:53:12;;;;;;;5.57;1.20;;;;;;;15.56;70.90;92986.00;2048389;70;20236;-71
2022/06/06 01:55:40;;;;;;;5.10;1.17;;;;;;;15.48;71.78;92992.03;2048392;69;20325;-71
2022/06/06 01:58:10;;;;;;;6.70;1.30;;;;;;;15.45;71.98;92996.88;2048248;70;20148;-71
2022/06/06 02:00:38;;;;;;;9.13;4.60;;;;;;;15.60;69.81;92992.59;2048492;70;20170;-70
2022/06/06 02:03:05;;;;;;;3.83;2.60;;;;;;;15.52;69.94;92989.38;2047816;70;20154;-71
2022/06/06 02:05:31;;;;;;;3.65;1.40;;;;;;;15.43;70.60;92990.38;2048294;70;20143;-71
2022/06/06 02:07:57;;;;;;;6.93;1.40;;;;;;;15.36;70.90;92991.47;2045027;70;20174;-71
2022/06/06 02:10:23;;;;;;;4.78;1.30;;;;;;;15.20;71.54;93000.63;2048240;70;20600;-72
2022/06/06 02:12:49;;;;;;;5.45;1.40;;;;;;;15.31;70.84;93001.16;2048233;70;20165;-72
2022/06/06 02:15:18;;;;;;;2.83;1.60;;;;;;;15.26;70.35;93005.91;2048284;70;20196;-72
2022/06/06 02:17:44;;;;;;;4.20;1.92;;;;;;;15.31;70.46;93004.00;2048346;70;20159;-71
2022/06/06 02:20:13;;;;;;;2.08;1.60;;;;;;;15.29;70.90;93015.22;2048410;70;20624;-71
2022/06/06 02:22:39;;;;;;;2.92;1.38;;;;;;;15.28;71.03;93011.66;2047841;70;20146;-72
2022/06/06 02:25:06;;;;;;;6.57;1.20;;;;;;;15.21;71.40;93013.47;2047915;70;20146;-71
2022/06/06 02:27:34;;;;;;;3.92;1.30;;;;;;;15.00;71.23;93020.25;2044436;70;20170;-72
2022/06/06 02:30:00;;;;;;;5.38;1.48;;;;;;;15.12;71.40;93020.13;2047422;70;20229;-72
2022/06/06 02:32:26;;;;;;;5.30;1.25;;;;;;;15.10;71.19;93016.44;2047186;70;20256;-72
2022/06/06 02:34:52;;;;;;;2.95;1.40;;;;;;;15.10;70.55;93019.28;2047971;70;20237;-72
2022/06/06 02:37:17;;;;;;;5.35;1.67;;;;;;;15.12;71.55;93022.19;2048339;70;20305;-72
2022/06/06 02:39:43;;;;;;;4.70;1.40;;;;;;;15.03;71.72;93021.09;2048076;70;20231;-72
2022/06/06 02:42:09;;;;;;;3.33;1.60;;;;;;;15.10;69.94;93013.59;2047427;70;20227;-72
2022/06/06 02:44:34;;;;;;;3.35;1.60;;;;;;;14.98;71.17;93008.81;2044722;70;20551;-72
2022/06/06 02:47:00;;;;;;;6.68;1.50;;;;;;;14.92;71.12;93010.59;2048270;70;20166;-72
2022/06/06 02:49:26;;;;;;;5.93;1.35;;;;;;;14.93;71.21;93012.78;2048173;70;20150;-72
2022/06/06 02:51:51;;;;;;;5.20;1.58;;;;;;;14.90;71.19;93016.91;2048119;70;20155;-72
2022/06/06 02:54:17;;;;;;;9.20;1.38;;;;;;;14.89;71.26;93012.63;2047829;70;20271;-72
2022/06/06 02:56:43;;;;;;;5.63;2.03;;;;;;;14.71;72.65;93014.53;2047848;70;20920;-72
2022/06/06 02:59:08;;;;;;;6.65;1.70;;;;;;;14.68;72.57;93015.78;2048079;70;20310;-72
2022/06/06 03:01:34;;;;;;;3.17;1.60;;;;;;;14.76;71.62;93021.13;2048256;70;20545;-72
2022/06/06 03:04:00;;;;;;;3.45;1.40;;;;;;;14.86;70.71;93015.97;2047509;70;20238;-72
2022/06/06 03:07:17;;;;;;;8.07;1.70;;;;;;;14.81;71.61;93012.19;2047901;70;20230;-72
2022/06/06 03:10:01;;;;;;;1.75;1.40;;;;;;;14.76;71.40;93015.47;2027947;70;20156;-72
2022/06/06 03:12:48;;;;;;;2.72;1.30;;;;;;;14.68;71.42;93007.28;2031115;70;20199;-72
2022/06/06 03:22:20;;;;;;;6.65;1.75;;;;;;;14.59;71.82;92997.63;2031153;70;20153;-72
2022/06/06 03:24:49;;;;;;;4.13;1.48;;;;;;;14.56;71.77;93013.06;2031055;70;20148;-73
2022/06/06 03:27:39;;;;;;;5.90;1.60;;;;;;;14.58;71.29;93006.78;2031332;70;20724;-73
2022/06/06 03:30:32;;;;;;;2.63;1.50;;;;;;;14.50;72.03;93012.75;2030352;70;20149;-73
2022/06/06 03:33:19;;;;;;;2.63;1.58;;;;;;;14.46;72.18;93007.59;2031073;70;20140;-73
2022/06/06 03:36:16;;;;;;;4.78;1.40;;;;;;;14.35;73.03;93014.09;2031685;70;20155;-73
2022/06/06 03:38:49;;;;;;;3.05;1.42;;;;;;;14.38;72.11;93017.75;2031725;70;20760;-73
2022/06/06 03:41:28;;;;;;;3.22;1.63;;;;;;;14.39;72.44;93017.16;2031802;70;20152;-73
2022/06/06 03:44:20;;;;;;;4.68;1.77;;;;;;;14.65;70.00;93019.88;2031733;70;20152;-73
2022/06/06 03:47:10;;;;;;;2.33;1.65;;;;;;;14.57;69.99;93019.44;2048736;70;20500;-73
2022/06/06 03:49:53;;;;;;;4.57;1.50;;;;;;;14.51;70.92;93019.16;2048661;70;20139;-73
2022/06/06 03:52:22;;;;;;;1.80;1.45;;;;;;;14.01;73.04;93018.66;2048773;70;20154;-73
2022/06/06 03:55:32;;;;;;;3.53;1.63;;;;;;;14.21;72.46;93019.75;2048783;70;20741;-73
2022/06/06 03:58:01;;;;;;;12.93;2.00;;;;;;;14.31;72.03;93016.00;2047911;70;20143;-73
2022/06/06 04:00:26;;;;;;;2.67;1.60;;;;;;;14.27;72.02;93024.28;2048756;70;20158;-73
2022/06/06 04:02:55;;;;;;;2.63;1.65;;;;;;;13.82;74.31;93036.78;2048584;70;20154;-73
2022/06/06 04:05:24;;;;;;;3.33;1.75;;;;;;;13.91;74.42;93041.50;2048706;70;20163;-73
2022/06/06 04:07:50;;;;;;;2.03;1.60;;;;;;;14.22;71.42;93048.81;2048774;70;20150;-73
2022/06/06 04:10:17;;;;;;;5.32;1.67;;;;;;;14.29;71.92;93047.75;2048702;70;20147;-73
2022/06/06 04:12:57;;;;;;;1.90;1.52;;;;;;;14.40;70.73;93040.53;2048669;70;20601;-73
2022/06/06 04:15:49;;;;;;;1.92;1.50;;;;;;;14.16;73.19;93054.16;2048718;70;20150;-73
2022/06/06 04:18:30;;;;;;;4.18;1.40;;;;;;;14.22;72.58;93051.63;2047230;70;20607;-73
2022/06/06 04:21:05;;;;;;;4.13;1.58;;;;;;;14.35;71.60;93050.91;2048691;70;20141;-73
2022/06/06 04:23:39;;;;;;;3.65;1.73;;;;;;;14.29;71.81;93044.91;2048836;70;20163;-73
2022/06/06 04:26:12;;;;;;;4.38;1.70;;;;;;;14.26;71.05;93049.03;2048770;70;20181;-73
2022/06/06 04:29:05;;;;;;;3.75;1.88;;;;;;;14.19;72.34;93053.63;2048687;70;20123;-73
2022/06/06 04:31:51;;;;;;;3.03;1.70;;;;;;;14.13;72.75;93053.31;2048670;70;20166;-73
2022/06/06 04:34:29;;;;;;;2.83;1.40;;;;;;;14.15;72.28;93047.72;2048607;70;20234;-73
2022/06/06 04:37:07;;;;;;;4.68;1.50;;;;;;;14.26;71.29;93053.94;2048851;70;20154;-73
2022/06/06 04:39:54;;;;;;;4.30;1.70;;;;;;;14.08;72.86;93065.03;2048786;70;20145;-73
2022/06/06 04:42:41;;;;;;;3.13;1.85;;;;;;;14.20;71.71;93069.25;2048717;70;20602;-73
2022/06/06 04:45:15;;;;;;;3.05;1.63;;;;;;;14.14;71.79;93068.91;2048626;70;20735;-73
2022/06/06 04:47:42;;;;;;;5.00;1.67;;;;;;;14.26;70.83;93077.34;2048552;70;20165;-73
2022/06/06 04:50:17;;;;;;;2.55;1.52;;;;;;;14.32;70.82;93076.91;2048611;69;20150;-73
2022/06/06 04:52:47;;;;;;;5.15;1.80;;;;;;;14.22;70.72;93086.34;2048589;70;20154;-73
2022/06/06 04:55:16;;;;;;;4.35;1.50;;;;;;;14.24;71.52;93088.53;2048613;70;20615;-73
2022/06/06 04:57:45;;;;;;;3.75;1.40;;;;;;;14.19;72.05;93087.59;2048718;70;20171;-73
2022/06/06 05:00:12;;;;;;;2.67;1.50;;;;;;;14.31;71.55;93083.94;2045335;70;20170;-73
2022/06/06 05:02:39;;;;;;;1.85;1.40;;;;;;;14.30;71.04;93085.31;2048425;70;20178;-73
2022/06/06 05:05:05;;;;;;;3.78;1.67;;;;;;;14.35;70.79;93072.84;2048434;70;20508;-73
2022/06/06 05:07:53;;;;;;;2.97;1.70;;;;;;;13.97;73.37;93078.66;2048268;70;20222;-72
2022/06/06 05:10:28;;;;;;;4.00;1.90;;;;;;;14.05;72.70;93078.34;2048276;70;20141;-72
2022/06/06 05:13:20;;;;;;;3.22;1.80;;;;;;;14.09;72.93;93072.91;2048440;70;20191;-74
2022/06/06 05:16:04;;;;;;;6.30;2.20;;;;;;;14.18;71.87;93077.63;2048441;70;20169;-72
2022/06/06 05:18:54;;;;;;;3.50;2.20;;;;;;;14.16;72.72;93076.81;2048460;70;20142;-72
2022/06/06 05:21:52;;;;;;;4.50;2.15;;;;;;;14.15;71.80;93078.88;2048592;70;20244;-72
2022/06/06 05:24:20;;;;;;;4.45;2.10;;;;;;;14.11;72.45;93078.69;2041744;70;20204;-72
2022/06/06 05:26:46;;;;;;;3.78;1.83;;;;;;;14.16;72.40;93066.22;2048562;70;20132;-72
2022/06/06 05:29:29;;;;;;;4.18;2.22;;;;;;;14.27;71.95;93075.25;2048576;70;20173;-72
2022/06/06 05:32:17;;;;;;;3.33;2.00;;;;;;;14.23;72.92;93084.97;2048522;70;20135;-72
2022/06/06 05:34:51;;;;;;;2.58;1.60;;;;;;;14.40;71.35;93080.19;2048442;70;20150;-72
2022/06/06 05:37:47;;;;;;;2.80;1.98;;;;;;;14.31;72.66;93076.19;2048658;70;20600;-72
2022/06/06 05:40:34;;;;;;;6.28;2.20;;;;;;;14.37;72.08;93087.84;2048677;70;20220;-72
2022/06/06 05:43:21;;;;;;;7.72;3.25;;;;;;;14.34;71.73;93088.34;2048542;70;20662;-72
2022/06/06 05:46:03;;;;;;;4.93;3.20;;;;;;;14.40;71.51;93085.84;2048698;70;20226;-73
2022/06/06 05:48:55;;;;;;;6.38;2.70;;;;;;;14.34;72.53;93085.50;2048417;70;20165;-72
2022/06/06 05:51:46;;;;;;;7.43;2.97;;;;;;;14.62;70.97;93089.16;2042864;70;20627;-73
2022/06/06 05:54:24;;;;;;;6.68;3.20;;;;;;;14.68;71.65;93083.78;2048509;70;20170;-73
2022/06/06 05:57:07;;;;;;;6.53;3.20;;;;;;;14.73;72.14;93085.47;2048379;70;20249;-73
2022/06/06 05:59:50;;;;;;;8.27;2.80;;;;;;;14.87;72.15;93091.84;2048524;70;20177;-73
2022/06/06 06:02:30;;;;;;;4.93;2.50;;;;;;;14.84;71.33;93083.88;2048446;70;20210;-72
2022/06/06 06:05:34;;;;;;;5.88;2.35;;;;;;;14.67;70.93;93073.81;2048501;70;20595;-73
2022/06/06 06:08:33;;;;;;;3.40;1.98;;;;;;;14.95;69.08;93078.09;2048514;70;20173;-73
2022/06/06 06:11:20;;;;;;;5.55;2.47;;;;;;;15.04;68.84;93067.91;2048468;70;20147;-73
2022/06/06 06:13:58;;;;;;;3.33;2.17;;;;;;;15.22;67.09;93070.94;2048464;70;20217;-73
2022/06/06 06:16:29;;;;;;;4.28;2.20;;;;;;;15.24;69.07;93068.19;2048438;70;20141;-72
2022/06/06 06:19:11;;;;;;;2.60;2.20;;;;;;;15.46;68.60;93054.34;2048366;70;20162;-73
2022/06/06 06:21:51;;;;;;;7.20;2.30;;;;;;;15.44;69.21;93055.00;2048568;70;20596;-73
2022/06/06 06:24:29;;;;;;;4.47;2.17;;;;;;;15.58;67.63;93057.78;2048557;70;20505;-72
2022/06/06 06:26:56;;;;;;;3.30;1.92;;;;;;;15.71;67.44;93059.09;2048512;70;20143;-74
2022/06/06 06:29:21;;;;;;;3.03;1.92;;;;;;;15.85;68.65;93056.22;2048446;70;20199;-73
2022/06/06 06:31:53;;;;;;;3.38;1.80;;;;;;;15.87;69.92;93057.03;2048336;70;20138;-73
2022/06/06 06:34:39;;;;;;;6.65;1.83;;;;;;;16.01;69.39;93052.03;2048311;70;20178;-74
2022/06/06 06:37:08;;;;;;;7.32;1.60;;;;;;;16.14;67.26;93047.66;2048532;70;20569;-72
2022/06/06 06:40:01;;;;;;;4.65;1.70;;;;;;;16.24;68.17;93047.38;2048402;70;20158;-72
2022/06/06 06:42:38;;;;;;;3.05;1.77;;;;;;;16.25;68.15;93043.88;2048494;70;20150;-72
2022/06/06 06:45:12;;;;;;;2.05;1.50;;;;;;;16.40;68.68;93042.44;2048522;70;20151;-72
2022/06/06 06:47:39;;;;;;;2.35;1.50;;;;;;;16.39;66.39;93040.94;2048310;70;20577;-73
2022/06/06 06:50:15;;;;;;;4.55;1.65;;;;;;;16.53;67.22;93044.41;2048479;70;20139;-73
2022/06/06 06:53:05;;;;;;;5.55;1.60;;;;;;;16.58;68.01;93047.44;2048454;70;20139;-73
2022/06/06 06:55:47;;;;;;;2.95;1.83;;;;;;;16.60;65.57;93053.94;2048396;70;20231;-73
2022/06/06 06:58:26;;;;;;;2.97;1.75;;;;;;;16.79;64.12;93055.50;2045142;70;20618;-72
2022/06/06 07:01:07;;;;;;;2.63;1.85;;;;;;;16.81;65.48;93058.44;2048474;70;20139;-72
2022/06/06 07:10:05;;;;;;;4.90;2.10;;;;;;;17.12;67.76;93045.53;2048873;70;20239;-72
2022/06/06 07:12:31;;;;;;;4.55;2.10;;;;;;;17.18;69.85;93040.06;2048810;70;20166;-72
2022/06/06 07:15:21;;;;;;;3.25;2.17;;;;;;;17.24;68.18;93034.66;2048810;70;20612;-72
2022/06/06 07:17:51;;;;;;;3.22;2.00;;;;;;;17.31;67.40;93035.63;2048631;70;20139;-73
2022/06/06 07:20:19;;;;;;;2.78;2.10;;;;;;;17.41;67.90;93036.78;2048632;70;20237;-73
2022/06/06 07:23:04;;;;;;;2.53;2.20;;;;;;;17.24;69.33;93029.69;2048846;70;20616;-73
2022/06/06 07:25:40;;;;;;;2.53;2.08;;;;;;;17.44;67.10;93037.59;2048774;70;20614;-72
2022/06/06 07:28:08;;;;;;;2.47;1.88;;;;;;;17.49;68.02;93030.69;2048756;70;20214;-72
2022/06/06 07:30:56;;;;;;;3.88;2.20;;;;;;;17.62;67.66;93029.78;2048710;70;20588;-73
2022/06/06 07:34:02;;;;;;;2.85;2.15;;;;;;;17.67;67.29;93022.88;2048543;70;20162;-73
2022/06/06 07:36:59;;;;;;;2.65;1.90;;;;;;;17.82;65.90;93020.59;2048213;70;20146;-73
2022/06/06 07:39:48;;;;;;;2.50;2.00;;;;;;;17.86;64.81;93017.91;2048780;70;20181;-73
2022/06/06 07:42:17;;;;;;;2.22;1.90;;;;;;;17.93;65.86;93017.50;2048803;70;20143;-73
2022/06/06 07:44:50;;;;;;;4.72;2.08;;;;;;;17.92;68.03;93012.47;2048873;70;20138;-73
2022/06/06 07:47:40;;;;;;;2.40;1.80;;;;;;;17.95;65.34;93002.59;2048702;70;20162;-73
2022/06/06 07:50:14;;;;;;;2.55;2.00;;;;;;;18.03;64.84;93000.06;2048949;70;20300;-73
2022/06/06 07:53:07;;;;;;;2.65;2.00;;;;;;;18.17;64.31;92999.88;2048730;70;20134;-73
2022/06/06 07:55:52;;;;;;;3.03;1.90;;;;;;;18.27;64.96;92989.56;2048719;70;20180;-74
2022/06/06 07:59:03;;;;;;;2.40;1.98;;;;;;;18.23;63.52;92988.69;2048729;70;20596;-73
2022/06/06 08:02:04;;;;;;;2.22;2.03;;;;;;;18.35;63.29;92989.16;2031721;70;20239;-73
2022/06/06 08:04:54;;;;;;;9.00;2.20;;;;;;;18.27;61.20;92991.69;2029350;70;20632;-74
2022/06/06 08:07:34;;;;;;;3.33;2.08;;;;;;;18.49;61.66;92995.38;2031562;70;20171;-74
2022/06/06 08:10:25;;;;;;;3.83;2.08;;;;;;;18.84;61.20;92993.78;2031782;70;20606;-74
2022/06/06 08:13:05;;;;;;;2.17;1.95;;;;;;;19.03;63.82;92981.59;2031614;70;20156;-73
2022/06/06 08:15:54;;;;;;;2.83;1.92;;;;;;;19.24;59.45;92982.25;2031612;70;20152;-74
2022/06/06 08:18:44;;;;;;;2.85;2.10;;;;;;;19.70;60.66;92996.63;2030595;70;20168;-73
2022/06/06 08:21:28;;;;;;;5.82;2.03;;;;;;;20.03;61.21;92990.53;2031601;70;20182;-75
2022/06/06 08:23:59;;;;;;;3.88;2.00;;;;;;;20.46;57.83;92983.19;2031663;70;20243;-74
2022/06/06 08:26:26;;;;;;;4.10;2.05;;;;;;;20.92;58.95;92979.47;2031627;70;20745;-74
2022/06/06 08:28:52;;;;;;;3.55;1.90;;;;;;;21.33;57.28;92978.41;2031609;70;20545;-75
2022/06/06 08:31:19;;;;;;;2.78;2.10;;;;;;;21.19;54.67;92975.19;2031569;70;20231;-75
2022/06/06 08:33:45;;;;;;;2.03;1.77;;;;;;;21.39;54.62;92969.97;2031444;70;20558;-72
2022/06/06 08:36:29;;;;;;;3.08;1.80;;;;;;;21.80;51.80;92960.22;2031554;70;20219;-73
2022/06/06 08:39:17;;;;;;;2.10;1.90;;;;;;;21.43;52.64;92952.91;2044257;70;20151;-73
2022/06/06 08:42:05;;;;;;;2.67;1.73;;;;;;;21.99;51.36;92949.16;2048596;69;20162;-72
2022/06/06 08:45:07;;;;;;;4.95;1.88;;;;;;;22.62;52.54;92941.19;2048589;70;20186;-74
2022/06/06 08:47:44;;;;;;;2.80;1.60;;;;;;;22.86;51.13;92935.91;2048089;70;20242;-72
2022/06/06 08:50:46;;;;;;;2.33;1.60;;;;;;;23.16;49.26;92932.19;2048624;70;20523;-73
2022/06/06 08:53:43;;;;;;;2.03;1.50;;;;;;;22.99;49.11;92928.28;2048568;70;20162;-73
2022/06/06 08:56:28;;;;;;;2.17;1.60;;;;;;;23.68;48.62;92923.00;2048698;70;20150;-73
2022/06/06 08:59:00;;;;;;;2.05;1.77;;;;;;;23.99;48.07;92916.28;2045315;70;20604;-73
2022/06/06 09:01:44;;;;;;;1.95;1.58;;;;;;;24.75;48.64;92915.13;2048532;70;20137;-74
2022/06/06 09:04:19;;;;;;;2.55;1.50;;;;;;;24.67;46.40;92917.91;2048626;70;20222;-74
2022/06/06 09:07:19;;;;;;;11.15;2.13;;;;;;;24.70;46.47;92907.16;2048536;70;20615;-73
2022/06/06 09:10:03;;;;;;;2.03;1.42;;;;;;;24.62;45.63;92907.06;2048596;70;20138;-73
2022/06/06 09:12:29;;;;;;;2.80;1.60;;;;;;;25.07;45.50;92906.13;2048510;70;20583;-75
2022/06/06 09:15:06;;;;;;;3.45;1.65;;;;;;;25.66;44.72;92910.94;2048531;70;20213;-73
2022/06/06 09:17:53;;;;;;;2.00;1.48;;;;;;;24.85;43.55;92909.47;2048504;70;20519;-74
2022/06/06 09:20:44;;;;;;;2.22;1.60;;;;;;;25.28;44.54;92895.53;2048553;70;20230;-73
2022/06/06 09:23:44;;;;;;;1.65;1.40;;;;;;;25.59;43.83;92895.78;2045346;70;20146;-73
2022/06/06 09:26:46;;;;;;;2.20;1.70;;;;;;;25.83;43.55;92886.59;2045326;70;20175;-73
2022/06/06 09:29:50;;;;;;;1.77;1.40;;;;;;;26.52;42.65;92889.88;2048597;70;20222;-74
2022/06/06 09:32:59;;;;;;;1.80;1.60;;;;;;;25.94;43.04;92884.53;2048315;70;20484;-73
2022/06/06 09:35:40;;;;;;;3.13;1.40;;;;;;;26.12;42.12;92878.16;2048645;70;20147;-74
2022/06/06 09:38:13;;;;;;;2.65;1.30;;;;;;;26.05;40.68;92871.59;2048578;70;20162;-73
2022/06/06 09:41:01;;;;;;;1.95;1.40;;;;;;;25.92;39.91;92876.56;2048526;70;20147;-75
2022/06/06 09:43:42;;;;;;;3.92;1.33;;;;;;;25.64;41.63;92868.44;2048697;70;20635;-73
2022/06/06 09:46:40;;;;;;;1.92;1.45;;;;;;;26.15;41.14;92863.00;2045264;70;20149;-74
2022/06/06 09:49:35;;;;;;;2.30;1.60;;;;;;;26.03;40.17;92857.91;2048463;70;20213;-77
2022/06/06 09:52:22;;;;;;;2.47;1.60;;;;;;;25.94;41.21;92850.63;2048583;70;20170;-75
2022/06/06 10:01:22;;;;;;;6.20;4.28;;;;;;;27.45;39.93;92839.56;2048633;70;20142;-73
2022/06/06 10:04:07;;;;;;;24.38;16.05;;;;;;;27.92;36.99;92838.81;2048372;70;20147;-75
2022/06/06 10:07:03;;;;;;;4.35;2.65;;;;;;;28.46;36.55;92828.53;2048472;70;20153;-75
2022/06/06 10:09:50;;;;;;;3.45;1.40;;;;;;;27.46;36.51;92826.53;2048450;70;20137;-76
2022/06/06 10:12:44;;;;;;;2.72;1.20;;;;;;;28.37;35.64;92813.38;2048536;70;20570;-74
2022/06/06 10:15:33;;;;;;;2.03;1.50;;;;;;;29.03;36.64;92814.47;2048416;70;20564;-74
2022/06/06 10:18:30;;;;;;;60.58;44.47;;;;;;;29.20;36.27;92814.38;2048456;70;20143;-73
2022/06/06 10:21:11;;;;;;;1.85;1.38;;;;;;;29.71;34.25;92805.28;2048484;70;20154;-72
2022/06/06 10:24:13;;;;;;;1.58;1.13;;;;;;;30.40;34.14;92801.66;2048434;70;20237;-74
2022/06/06 10:26:46;;;;;;;3.33;2.63;;;;;;;29.94;34.75;92800.69;2048450;70;20142;-75
2022/06/06 10:30:27;;;;;;;3.90;3.08;;;;;;;29.91;34.65;92802.16;2048425;70;20267;-74
2022/06/06 10:32:53;;;;;;;3.40;1.40;;;;;;;31.16;33.30;92798.47;2046560;70;20146;-74
2022/06/06 10:35:47;;;;;;;1.77;1.20;;;;;;;31.08;32.19;92793.50;2048507;70;20175;-74
2022/06/06 10:38:28;;;;;;;2.25;1.85;;;;;;;30.63;30.63;92782.47;2048394;70;20230;-74
2022/06/06 10:40:57;;;;;;;1.30;1.20;;;;;;;30.86;31.37;92785.81;2048409;70;20687;-75
2022/06/06 10:43:44;;;;;;;5.03;1.20;;;;;;;32.47;31.27;92781.69;2048393;70;20222;-73
2022/06/06 10:46:45;;;;;;;1.65;0.98;;;;;;;31.65;28.14;92783.16;2048649;70;20155;-75
2022/06/06 10:49:23;;;;;;;1.33;1.00;;;;;;;33.62;29.03;92780.59;2048424;70;20648;-74
2022/06/06 10:52:11;;;;;;;1.23;1.00;;;;;;;32.79;27.20;92772.25;2048569;70;20204;-74
2022/06/06 10:54:57;;;;;;;3.20;1.77;;;;;;;33.91;24.26;92774.75;2048792;70;20517;-74
2022/06/06 10:58:00;;;;;;;8.05;5.63;;;;;;;35.94;24.69;92772.41;2048396;70;20540;-73
2022/06/06 11:00:47;;;;;;;13.75;11.68;;;;;;;37.04;22.36;92778.03;2048468;70;20155;-73
2022/06/06 11:03:48;;;;;;;2.60;1.33;;;;;;;37.49;19.45;92775.59;2048256;70;20159;-73
2022/06/06 11:06:39;;;;;;;2.22;1.00;;;;;;;41.23;18.25;92771.25;2048294;70;20158;-74
2022/06/06 11:09:36;;;;;;;1.33;0.90;;;;;;;40.76;18.36;92752.41;2048365;70;20142;-73
2022/06/06 11:12:22;;;;;;;2.47;0.73;;;;;;;43.19;15.11;92762.09;2048440;70;20559;-74
2022/06/06 11:14:48;;;;;;;2.72;0.80;;;;;;;43.51;16.17;92748.22;2048406;70;20150;-74
2022/06/06 11:17:44;;;;;;;1.65;0.70;;;;;;;43.73;14.32;92748.31;2048358;70;20142;-72
2022/06/06 11:20:47;;;;;;;2.15;0.75;;;;;;;43.16;14.59;92740.78;2048340;70;20209;-72
2022/06/06 11:23:23;;;;;;;1.02;0.55;;;;;;;43.94;14.57;92741.75;2048422;70;20139;-73
2022/06/06 11:26:23;;;;;;;1.92;0.80;;;;;;;46.65;13.73;92742.59;2048597;70;20592;-73
2022/06/06 11:29:03;;;;;;;1.60;0.80;;;;;;;45.38;14.54;92737.06;2048322;70;20139;-74
2022/06/06 11:31:31;;;;;;;35.50;31.67;;;;;;;42.97;14.90;92714.56;2044877;70;20158;-73
2022/06/06 11:34:32;;;;;;;4.35;3.47;;;;;;;46.38;13.14;92726.78;2048243;70;20623;-74
2022/06/06 11:37:41;;;;;;;47.25;30.40;;;;;;;45.64;13.33;92728.53;2048356;70;20142;-74
2022/06/06 11:40:16;;;;;;;14.20;7.70;;;;;;;46.59;12.84;92714.00;2048234;70;20163;-73
2022/06/06 11:43:12;;;;;;;5.43;3.17;;;;;;;47.87;12.46;92715.03;2048388;70;20273;-73
2022/06/06 11:45:55;;;;;;;17.05;9.00;;;;;;;47.72;12.13;92723.75;2048233;70;20134;-73
2022/06/06 11:48:49;;;;;;;10.85;6.50;;;;;;;46.83;13.09;92708.41;2048143;70;20150;-73
2022/06/06 11:51:35;;;;;;;3.17;2.88;;;;;;;47.46;11.23;92715.38;2048186;70;20248;-73
2022/06/06 11:54:03;;;;;;;1.30;1.10;;;;;;;47.56;10.52;92704.88;2048258;70;20165;-73
2022/06/06 11:56:32;;;;;;;1.60;0.70;;;;;;;42.96;13.64;92679.88;2048713;70;20153;-73
2022/06/06 11:59:03;;;;;;;2.05;0.75;;;;;;;48.49;12.05;92689.78;2048724;70;20141;-74
2022/06/06 12:01:32;;;;;;;;;;;;;;;47.54;11.78;92684.19;2048953;70;20149;-74
2022/06/06 12:04:32;;;;;;;0.70;0.60;;;;;;;46.18;13.15;92677.72;2048575;70;20123;-73
2022/06/06 12:07:36;;;;;;;2.13;0.68;;;;;;;47.48;11.46;92675.75;2048697;70;20568;-73
2022/06/06 12:10:25;;;;;;;1.33;0.80;;;;;;;45.17;12.68;92681.38;2040069;70;20682;-73
2022/06/06 12:13:11;;;;;;;3.42;0.60;;;;;;;44.44;14.09;92660.50;2048636;70;20130;-73
2022/06/06 12:16:03;;;;;;;2.20;0.73;;;;;;;38.20;16.88;92639.66;2048745;70;20685;-73
2022/06/06 12:18:51;;;;;;;0.70;0.50;;;;;;;38.06;18.66;92638.78;2049095;70;20226;-74
2022/06/06 12:21:50;;;;;;;1.25;0.80;;;;;;;37.25;20.79;92625.34;2049139;70;20158;-74
2022/06/06 12:24:47;;;;;;;0.98;0.70;;;;;;;35.37;19.73;92622.81;2049014;70;20153;-74
2022/06/06 12:27:24;;;;;;;2.83;0.85;;;;;;;35.58;21.12;92614.06;2048976;70;20605;-74
2022/06/06 12:30:02;;;;;;;2.67;0.65;;;;;;;35.12;21.47;92614.88;2049033;70;20150;-74
2022/06/06 12:32:38;;;;;;;1.33;0.80;;;;;;;34.67;21.62;92600.97;2049016;70;20142;-73
2022/06/06 12:35:26;;;;;;;4.60;0.80;;;;;;;35.03;22.22;92589.59;2049031;70;20155;-74
2022/06/06 12:38:00;;;;;;;0.70;0.70;;;;;;;34.38;22.51;92596.00;2049029;70;20182;-74
2022/06/06 12:40:41;;;;;;;2.60;0.70;;;;;;;33.38;22.71;92583.50;2049018;70;20155;-72
2022/06/06 12:43:25;;;;;;;1.42;0.73;;;;;;;33.03;22.68;92581.50;2049086;70;20131;-71
2022/06/06 12:46:03;;;;;;;1.33;0.70;;;;;;;32.48;23.57;92585.00;2048032;70;20166;-71
2022/06/06 12:48:51;;;;;;;1.00;0.80;;;;;;;32.21;24.28;92579.06;2048122;70;20172;-72
2022/06/06 12:51:54;;;;;;;1.00;0.90;;;;;;;32.39;24.16;92581.56;2048799;70;20138;-72
2022/06/06 12:58:07;;;;;;;1.13;0.80;;;;;;;32.14;25.96;92558.81;2048874;70;20626;-74
2022/06/06 13:04:12;;;;;;;1.25;1.00;;;;;;;31.93;26.40;92560.75;2048792;70;20166;-73
2022/06/06 13:07:13;;;;;;;1.90;0.90;;;;;;;30.68;25.44;92550.00;2037498;70;20299;-71